createdAt,value
2022-09-01T00:00:21.365Z,97605.40
2022-09-01T00:03:02.722Z,97607.64
2022-09-01T00:05:33.260Z,97599.99
2022-09-01T00:08:01.555Z,97596.65
2022-09-01T00:10:29.909Z,97596.34
2022-09-01T00:12:58.532Z,97594.35
2022-09-01T00:15:27.262Z,97590.39
2022-09-01T00:17:55.362Z,97586.99
2022-09-01T00:20:23.446Z,97585.05
2022-09-01T00:22:52.846Z,97576.48
2022-09-01T00:25:21.547Z,97579.19
2022-09-01T00:27:50.061Z,97585.64
2022-09-01T00:30:19.377Z,97579.09
2022-09-01T00:32:48.219Z,97580.35
2022-09-01T00:35:19.535Z,97576.49
2022-09-01T00:37:47.952Z,97575.58
2022-09-01T00:40:18.871Z,97574.80
2022-09-01T00:42:49.163Z,97567.27
2022-09-01T00:45:19.466Z,97570.00
2022-09-01T00:47:49.853Z,97566.92
2022-09-01T00:50:20.175Z,97571.31
2022-09-01T00:52:51.780Z,97573.36
2022-09-01T00:55:26.883Z,97581.85
2022-09-01T00:57:55.832Z,97594.34
2022-09-01T01:00:27.674Z,97597.98
2022-09-01T01:02:56.803Z,97596.81
2022-09-01T01:05:31.166Z,97592.27
2022-09-01T01:08:02.066Z,97588.52
2022-09-01T01:10:36.118Z,97581.33
2022-09-01T01:13:15.654Z,97581.61
2022-09-01T01:15:44.932Z,97583.59
2022-09-01T01:18:15.024Z,97580.39
2022-09-01T01:21:34.555Z,97580.11
2022-09-01T01:24:28.178Z,97574.17
2022-09-01T01:27:00.273Z,97574.77
2022-09-01T01:29:34.153Z,97572.31
2022-09-01T01:32:02.749Z,97571.52
2022-09-01T01:34:32.116Z,97567.35
2022-09-01T01:37:01.826Z,97563.33
2022-09-01T01:39:29.895Z,97560.98
2022-09-01T01:41:59.192Z,97559.45
2022-09-01T01:44:30.133Z,97562.02
2022-09-01T01:47:08.416Z,97561.10
2022-09-01T01:49:37.840Z,97565.84
2022-09-01T01:52:06.200Z,97565.29
2022-09-01T01:54:37.585Z,97567.97
2022-09-01T01:57:05.831Z,97560.74
2022-09-01T01:59:34.650Z,97561.13
2022-09-01T02:02:08.640Z,97556.59
2022-09-01T02:04:36.776Z,97554.49
2022-09-01T02:07:12.128Z,97553.82
2022-09-01T02:09:44.239Z,97560.29
2022-09-01T02:12:12.343Z,97560.63
2022-09-01T02:14:44.105Z,97556.07
2022-09-01T02:17:12.237Z,97557.81
2022-09-01T02:19:40.656Z,97561.79
2022-09-01T02:22:11.087Z,97556.76
2022-09-01T02:24:46.519Z,97557.39
2022-09-01T02:27:15.800Z,97554.90
2022-09-01T02:29:44.205Z,97553.92
2022-09-01T02:32:12.407Z,97555.61
2022-09-01T02:34:40.890Z,97562.21
2022-09-01T02:37:08.896Z,97558.86
2022-09-01T02:39:36.968Z,97561.12
2022-09-01T02:42:05.344Z,97558.50
2022-09-01T02:44:36.290Z,97551.89
2022-09-01T02:47:10.202Z,97548.70
2022-09-01T02:49:38.937Z,97548.89
2022-09-01T02:52:08.216Z,97550.65
2022-09-01T02:54:36.424Z,97552.91
2022-09-01T02:57:04.789Z,97552.13
2022-09-01T02:59:40.616Z,97554.61
2022-09-01T03:02:11.402Z,97553.84
2022-09-01T03:04:39.535Z,97554.38
2022-09-01T03:07:08.899Z,97552.64
2022-09-01T03:09:37.005Z,97550.56
2022-09-01T03:12:07.341Z,97546.67
2022-09-01T03:14:36.116Z,97547.54
2022-09-01T03:17:04.230Z,97550.46
2022-09-01T03:19:40.626Z,97547.71
2022-09-01T03:22:08.713Z,97549.84
2022-09-01T03:24:39.256Z,97543.23
2022-09-01T03:27:07.988Z,97535.33
2022-09-01T03:29:36.950Z,97536.25
2022-09-01T03:32:06.515Z,97543.03
2022-09-01T03:34:37.005Z,97549.92
2022-09-01T03:37:08.141Z,97550.27
2022-09-01T03:39:36.834Z,97550.05
2022-09-01T03:42:05.633Z,97551.24
2022-09-01T03:44:35.490Z,97547.70
2022-09-01T03:47:03.641Z,97546.58
2022-09-01T03:49:32.999Z,97546.06
2022-09-01T03:52:01.416Z,97551.36
2022-09-01T03:54:30.552Z,97550.90
2022-09-01T03:57:00.074Z,97547.20
2022-09-01T03:59:32.187Z,97549.71
2022-09-01T04:02:02.879Z,97550.41
2022-09-01T04:04:33.185Z,97549.27
2022-09-01T04:07:01.664Z,97546.95
2022-09-01T04:09:34.750Z,97545.21
2022-09-01T04:12:08.210Z,97544.05
2022-09-01T04:14:38.041Z,97540.76
2022-09-01T04:17:28.611Z,97535.69
2022-09-01T04:19:58.482Z,97535.39
2022-09-01T04:22:32.174Z,97538.73
2022-09-01T04:25:00.500Z,97545.61
2022-09-01T04:27:29.210Z,97543.19
2022-09-01T04:29:57.890Z,97537.90
2022-09-01T04:32:28.989Z,97536.21
2022-09-01T04:35:01.719Z,97534.40
2022-09-01T04:37:30.233Z,97535.67
2022-09-01T04:40:01.428Z,97534.73
2022-09-01T04:42:32.737Z,97539.50
2022-09-01T04:45:10.019Z,97538.68
2022-09-01T04:47:42.358Z,97538.20
2022-09-01T04:50:17.829Z,97539.55
2022-09-01T04:53:06.284Z,97536.23
2022-09-01T04:55:43.771Z,97537.86
2022-09-01T04:58:18.714Z,97540.46
2022-09-01T05:00:48.363Z,97542.95
2022-09-01T05:03:23.564Z,97544.16
2022-09-01T05:05:58.505Z,97546.77
2022-09-01T05:08:26.997Z,97549.79
2022-09-01T05:10:57.164Z,97549.57
2022-09-01T05:13:49.254Z,97546.64
2022-09-01T05:16:24.997Z,97545.40
2022-09-01T05:18:57.973Z,97543.16
2022-09-01T05:21:29.960Z,97539.03
2022-09-01T05:24:01.712Z,97537.11
2022-09-01T05:26:33.769Z,97536.23
2022-09-01T05:29:05.149Z,97532.36
2022-09-01T05:31:37.766Z,97530.66
2022-09-01T05:34:08.153Z,97526.70
2022-09-01T05:36:39.582Z,97525.97
2022-09-01T05:39:11.353Z,97521.64
2022-09-01T05:41:41.231Z,97525.27
2022-09-01T05:44:11.375Z,97524.71
2022-09-01T05:46:40.130Z,97518.16
2022-09-01T05:49:14.025Z,97514.08
2022-09-01T05:51:45.360Z,97505.46
2022-09-01T05:54:23.329Z,97508.02
2022-09-01T05:56:53.820Z,97505.52
2022-09-01T05:59:26.676Z,97502.59
2022-09-01T06:02:09.109Z,97500.67
2022-09-01T06:04:44.325Z,97501.86
2022-09-01T06:07:25.389Z,97494.55
2022-09-01T06:09:54.589Z,97494.29
2022-09-01T06:12:25.123Z,97486.84
2022-09-01T06:14:56.908Z,97483.04
2022-09-01T06:17:30.248Z,97485.51
2022-09-01T06:20:02.132Z,97480.06
2022-09-01T06:22:31.022Z,97476.98
2022-09-01T06:25:02.662Z,97473.55
2022-09-01T06:27:42.749Z,97470.41
2022-09-01T06:30:23.025Z,97471.17
2022-09-01T06:33:10.037Z,97468.70
2022-09-01T06:35:42.281Z,97464.23
2022-09-01T06:38:19.538Z,97473.54
2022-09-01T06:40:51.272Z,97473.90
2022-09-01T06:43:23.869Z,97474.55
2022-09-01T06:46:14.608Z,97475.70
2022-09-01T06:48:46.736Z,97473.95
2022-09-01T06:51:22.712Z,97469.00
2022-09-01T06:53:57.184Z,97468.18
2022-09-01T06:56:32.070Z,97462.74
2022-09-01T06:59:05.596Z,97457.79
2022-09-01T07:01:39.230Z,97448.27
2022-09-01T07:04:12.894Z,97450.42
2022-09-01T07:10:18.668Z,97444.95
2022-09-01T07:13:06.890Z,97446.67
2022-09-01T07:18:31.346Z,97442.24
2022-09-01T07:21:36.233Z,97438.92
2022-09-01T07:24:07.820Z,97434.92
2022-09-01T07:29:32.753Z,97437.88
2022-09-01T07:34:55.318Z,97439.92
2022-09-01T07:43:22.360Z,97437.27
2022-09-01T07:51:51.892Z,97434.30
2022-09-01T07:54:25.381Z,97432.13
2022-09-01T07:56:55.658Z,97431.25
2022-09-01T07:59:25.331Z,97426.44
2022-09-01T08:02:06.725Z,97429.24
2022-09-01T08:04:36.642Z,97424.32
2022-09-01T08:07:05.932Z,97420.09
2022-09-01T08:09:43.698Z,97413.67
2022-09-01T08:12:14.018Z,97410.50
2022-09-01T08:17:58.394Z,97405.86
2022-09-01T08:20:37.955Z,97401.27
2022-09-01T08:23:29.641Z,97397.36
2022-09-01T08:26:11.320Z,97391.08
2022-09-01T08:28:46.022Z,97388.78
2022-09-01T08:31:19.870Z,97381.62
2022-09-01T08:33:49.913Z,97379.92
2022-09-01T08:36:23.716Z,97370.27
2022-09-01T08:38:54.897Z,97365.30
2022-09-01T08:41:58.795Z,97359.55
2022-09-01T08:44:41.229Z,97361.26
2022-09-01T08:47:28.806Z,97357.59
2022-09-01T08:50:00.342Z,97352.23
2022-09-01T08:53:09.132Z,97353.66
2022-09-01T08:55:46.158Z,97358.44
2022-09-01T08:58:18.478Z,97356.41
2022-09-01T09:00:58.044Z,97353.91
2022-09-01T09:03:41.769Z,97350.13
2022-09-01T09:06:21.966Z,97345.40
2022-09-01T09:09:04.343Z,97343.33
2022-09-01T09:12:03.587Z,97342.67
2022-09-01T09:15:11.807Z,97340.29
2022-09-01T09:17:47.962Z,97342.92
2022-09-01T09:20:17.002Z,97335.56
2022-09-01T09:22:49.028Z,97330.59
2022-09-01T09:25:19.949Z,97332.94
2022-09-01T09:28:00.146Z,97331.42
2022-09-01T09:30:32.482Z,97328.72
2022-09-01T09:36:17.253Z,97324.00
2022-09-01T09:38:46.621Z,97320.65
2022-09-01T09:41:27.208Z,97325.19
2022-09-01T09:44:01.293Z,97320.09
2022-09-01T09:46:43.364Z,97318.89
2022-09-01T09:49:37.312Z,97319.14
2022-09-01T09:52:19.595Z,97318.40
2022-09-01T09:55:27.813Z,97318.64
2022-09-01T09:58:02.228Z,97315.25
2022-09-01T10:00:34.757Z,97308.68
2022-09-01T10:03:04.559Z,97308.94
2022-09-01T10:05:44.593Z,97311.64
2022-09-01T10:08:45.514Z,97309.44
2022-09-01T10:12:56.438Z,97311.66
2022-09-01T10:15:15.230Z,97307.97
2022-09-01T10:17:47.685Z,97308.23
2022-09-01T10:20:25.611Z,97306.55
2022-09-01T10:22:54.642Z,97307.56
2022-09-01T10:25:29.196Z,97305.60
2022-09-01T10:28:24.834Z,97301.42
2022-09-01T10:30:58.192Z,97301.90
2022-09-01T10:33:38.164Z,97299.20
2022-09-01T10:36:32.026Z,97293.90
2022-09-01T10:39:06.258Z,97289.77
2022-09-01T10:42:01.076Z,97294.54
2022-09-01T10:44:34.498Z,97302.90
2022-09-01T10:47:14.512Z,97300.04
2022-09-01T10:49:48.889Z,97293.56
2022-09-01T10:52:43.394Z,97297.45
2022-09-01T10:55:48.297Z,97290.42
2022-09-01T11:01:48.624Z,97285.70
2022-09-01T11:04:48.914Z,97281.73
2022-09-01T11:07:50.216Z,97273.64
2022-09-01T11:10:36.251Z,97269.70
2022-09-01T11:13:23.311Z,97263.23
2022-09-01T11:15:52.628Z,97262.23
2022-09-01T11:18:29.725Z,97259.32
2022-09-01T11:21:39.466Z,97257.23
2022-09-01T11:25:02.501Z,97258.48
2022-09-01T11:27:49.895Z,97260.19
2022-09-01T11:30:23.581Z,97260.41
2022-09-01T11:32:57.210Z,97260.05
2022-09-01T11:35:29.223Z,97259.45
2022-09-01T11:38:04.632Z,97257.51
2022-09-01T11:40:35.121Z,97258.04
2022-09-01T11:43:16.889Z,97254.47
2022-09-01T11:46:08.813Z,97253.63
2022-09-01T11:48:40.617Z,97253.13
2022-09-01T11:51:08.990Z,97255.92
2022-09-01T11:53:44.540Z,97262.25
2022-09-01T11:56:39.422Z,97263.17
2022-09-01T11:59:07.956Z,97263.45
2022-09-01T12:01:38.634Z,97264.06
2022-09-01T12:04:26.748Z,97266.10
2022-09-01T12:07:02.684Z,97267.89
2022-09-01T12:09:49.638Z,97268.96
2022-09-01T12:12:40.016Z,97273.43
2022-09-01T12:15:26.925Z,97272.09
2022-09-01T12:18:10.908Z,97270.55
2022-09-01T12:20:42.341Z,97271.42
2022-09-01T12:23:29.177Z,97272.98
2022-09-01T12:26:01.989Z,97273.20
2022-09-01T12:28:33.589Z,97272.54
2022-09-01T12:31:07.738Z,97273.55
2022-09-01T12:33:37.259Z,97269.73
2022-09-01T12:36:35.320Z,97267.46
2022-09-01T12:39:22.830Z,97268.54
2022-09-01T12:42:45.542Z,97270.89
2022-09-01T12:45:13.890Z,97273.19
2022-09-01T12:47:50.233Z,97270.27
2022-09-01T12:50:19.086Z,97269.98
2022-09-01T12:53:18.732Z,97271.11
2022-09-01T12:56:22.119Z,97266.94
2022-09-01T12:58:54.217Z,97269.59
2022-09-01T13:01:34.063Z,97267.76
2022-09-01T13:04:34.453Z,97268.87
2022-09-01T13:07:08.974Z,97266.77
2022-09-01T13:09:38.343Z,97266.48
2022-09-01T13:12:21.752Z,97270.42
2022-09-01T13:14:51.107Z,97276.45
2022-09-01T13:17:21.154Z,97288.09
2022-09-01T13:19:49.832Z,97296.64
2022-09-01T13:22:19.359Z,97318.07
2022-09-01T13:24:48.000Z,97320.38
2022-09-01T13:27:22.699Z,97326.51
2022-09-01T13:29:53.584Z,97335.67
2022-09-01T13:32:24.043Z,97334.36
2022-09-01T13:34:54.668Z,97343.74
2022-09-01T13:37:23.965Z,97354.05
2022-09-01T13:39:52.517Z,97358.44
2022-09-01T13:42:21.378Z,97364.39
2022-09-01T13:44:52.542Z,97373.98
2022-09-01T13:47:31.782Z,97385.14
2022-09-01T13:50:10.493Z,97389.95
2022-09-01T13:52:42.535Z,97407.64
2022-09-01T13:55:13.903Z,97395.68
2022-09-01T13:57:42.750Z,97404.07
2022-09-01T14:00:16.020Z,97412.84
2022-09-01T14:02:49.772Z,97410.73
2022-09-01T14:05:20.919Z,97417.67
2022-09-01T14:07:50.291Z,97426.52
2022-09-01T14:10:20.070Z,97439.79
2022-09-01T14:12:48.994Z,97442.20
2022-09-01T14:15:24.995Z,97457.44
2022-09-01T14:17:57.608Z,97457.55
2022-09-01T14:20:30.342Z,97457.50
2022-09-01T14:23:04.631Z,97469.17
2022-09-01T14:25:34.043Z,97468.50
2022-09-01T14:28:06.478Z,97470.30
2022-09-01T14:30:35.653Z,97467.42
2022-09-01T14:33:05.980Z,97474.33
2022-09-01T14:35:37.048Z,97475.83
2022-09-01T14:38:07.899Z,97480.80
2022-09-01T14:40:38.767Z,97486.02
2022-09-01T14:43:15.453Z,97491.77
2022-09-01T14:45:50.684Z,97495.17
2022-09-01T14:48:20.896Z,97504.48
2022-09-01T14:50:51.026Z,97510.45
2022-09-01T14:53:20.918Z,97511.67
2022-09-01T14:55:51.505Z,97519.33
2022-09-01T14:58:27.244Z,97516.66
2022-09-01T15:01:03.466Z,97522.52
2022-09-01T15:03:34.813Z,97520.92
2022-09-01T15:06:04.713Z,97524.19
2022-09-01T15:08:33.234Z,97524.04
2022-09-01T15:11:02.011Z,97522.48
2022-09-01T15:13:31.003Z,97524.38
2022-09-01T15:15:59.738Z,97528.40
2022-09-01T15:18:28.081Z,97534.31
2022-09-01T15:21:01.684Z,97535.21
2022-09-01T15:23:31.045Z,97532.15
2022-09-01T15:26:00.099Z,97540.62
2022-09-01T15:28:28.448Z,97540.07
2022-09-01T15:31:00.133Z,97539.77
2022-09-01T15:33:28.655Z,97543.46
2022-09-01T15:35:56.972Z,97539.81
2022-09-01T15:38:30.289Z,97544.61
2022-09-01T15:41:03.321Z,97544.73
2022-09-01T15:43:33.418Z,97546.04
2022-09-01T15:46:04.858Z,97549.42
2022-09-01T15:48:33.370Z,97557.91
2022-09-01T15:51:38.137Z,97553.23
2022-09-01T15:54:15.435Z,97553.80
2022-09-01T15:56:47.668Z,97550.40
2022-09-01T15:59:16.415Z,97546.42
2022-09-01T16:01:46.416Z,97549.25
2022-09-01T16:04:20.798Z,97549.77
2022-09-01T16:06:52.795Z,97552.30
2022-09-01T16:09:21.389Z,97554.01
2022-09-01T16:11:50.259Z,97551.96
2022-09-01T16:14:21.367Z,97549.27
2022-09-01T16:17:04.196Z,97549.46
2022-09-01T16:19:47.373Z,97553.23
2022-09-01T16:22:29.308Z,97556.56
2022-09-01T16:25:02.353Z,97556.90
2022-09-01T16:27:39.503Z,97559.84
2022-09-01T16:30:14.763Z,97563.96
2022-09-01T16:32:48.587Z,97565.09
2022-09-01T16:35:18.575Z,97564.14
2022-09-01T16:37:55.957Z,97569.63
2022-09-01T16:41:06.245Z,97571.90
2022-09-01T16:43:45.526Z,97569.80
2022-09-01T16:46:13.908Z,97569.98
2022-09-01T16:48:57.235Z,97574.50
2022-09-01T16:51:36.644Z,97584.75
2022-09-01T16:54:30.621Z,97585.88
2022-09-01T16:57:03.323Z,97591.59
2022-09-01T16:59:51.864Z,97597.30
2022-09-01T17:02:51.305Z,97605.48
2022-09-01T17:06:10.683Z,97598.13
2022-09-01T17:08:59.031Z,97604.48
2022-09-01T17:12:17.212Z,97604.39
2022-09-01T17:15:08.380Z,97604.40
2022-09-01T17:18:22.295Z,97599.42
2022-09-01T17:20:58.005Z,97601.70
2022-09-01T17:23:31.810Z,97605.37
2022-09-01T17:26:14.311Z,97610.70
2022-09-01T17:28:52.202Z,97605.32
2022-09-01T17:31:26.832Z,97605.85
2022-09-01T17:34:27.995Z,97609.90
2022-09-01T17:37:14.499Z,97608.66
2022-09-01T17:40:06.134Z,97612.30
2022-09-01T17:42:43.893Z,97618.00
2022-09-01T17:45:29.204Z,97617.73
2022-09-01T17:48:06.293Z,97625.98
2022-09-01T17:50:34.889Z,97627.64
2022-09-01T17:53:18.049Z,97627.52
2022-09-01T17:56:08.045Z,97630.44
2022-09-01T17:58:59.270Z,97626.93
2022-09-01T18:01:49.842Z,97627.59
2022-09-01T18:04:31.764Z,97633.77
2022-09-01T18:07:27.792Z,97639.40
2022-09-01T18:10:03.082Z,97638.40
2022-09-01T18:12:36.187Z,97643.07
2022-09-01T18:15:11.872Z,97648.81
2022-09-01T18:18:14.812Z,97645.41
2022-09-01T18:20:48.876Z,97648.77
2022-09-01T18:23:20.965Z,97650.73
2022-09-01T18:26:08.848Z,97654.67
2022-09-01T18:28:38.755Z,97655.48
2022-09-01T18:31:28.987Z,97653.62
2022-09-01T18:34:18.886Z,97653.74
2022-09-01T18:37:16.746Z,97655.67
2022-09-01T18:40:17.358Z,97658.76
2022-09-01T18:42:49.264Z,97654.55
2022-09-01T18:46:16.210Z,97652.42
2022-09-01T18:48:57.453Z,97654.44
2022-09-01T18:51:51.605Z,97655.60
2022-09-01T18:54:47.183Z,97659.73
2022-09-01T18:57:21.239Z,97658.30
2022-09-01T19:00:01.971Z,97653.42
2022-09-01T19:02:38.458Z,97658.11
2022-09-01T19:05:30.057Z,97661.89
2022-09-01T19:08:06.264Z,97665.57
2022-09-01T19:11:06.374Z,97670.84
2022-09-01T19:13:46.762Z,97672.64
2022-09-01T19:16:30.339Z,97667.73
2022-09-01T19:19:31.313Z,97670.83
2022-09-01T19:21:59.785Z,97668.20
2022-09-01T19:24:54.102Z,97666.70
2022-09-01T19:27:30.779Z,97664.63
2022-09-01T19:30:04.768Z,97666.78
2022-09-01T19:32:36.249Z,97663.50
2022-09-01T19:35:17.372Z,97668.48
2022-09-01T19:37:53.127Z,97667.43
2022-09-01T19:40:32.333Z,97672.84
2022-09-01T19:43:10.176Z,97668.69
2022-09-01T19:46:00.757Z,97662.89
2022-09-01T19:48:51.244Z,97663.33
2022-09-01T19:51:57.297Z,97660.96
2022-09-01T19:54:37.867Z,97660.58
2022-09-01T19:57:21.720Z,97664.21
2022-09-01T20:00:05.160Z,97670.11
2022-09-01T20:02:41.653Z,97669.46
2022-09-01T20:05:31.433Z,97674.23
2022-09-01T20:08:06.755Z,97668.60
2022-09-01T20:10:56.127Z,97674.66
2022-09-01T20:13:56.756Z,97671.46
2022-09-01T20:16:31.030Z,97674.39
2022-09-01T20:19:11.888Z,97672.89
2022-09-01T20:21:44.143Z,97674.75
2022-09-01T20:24:36.283Z,97677.02
2022-09-01T20:27:11.168Z,97679.42
2022-09-01T20:29:58.734Z,97677.09
2022-09-01T20:32:39.819Z,97676.50
2022-09-01T20:35:18.784Z,97681.52
2022-09-01T20:37:55.564Z,97682.21
2022-09-01T20:40:32.746Z,97681.67
2022-09-01T20:43:25.387Z,97676.83
2022-09-01T20:45:55.327Z,97680.26
2022-09-01T20:48:26.803Z,97683.92
2022-09-01T20:51:03.230Z,97687.44
2022-09-01T20:54:11.862Z,97689.88
2022-09-01T20:56:43.152Z,97687.05
2022-09-01T20:59:21.046Z,97688.98
2022-09-01T21:01:59.277Z,97691.35
2022-09-01T21:04:53.820Z,97693.36
2022-09-01T21:07:31.388Z,97690.58
2022-09-01T21:10:20.190Z,97693.70
2022-09-01T21:12:48.250Z,97697.25
2022-09-01T21:15:45.359Z,97694.39
2022-09-01T21:18:31.862Z,97696.81
2022-09-01T21:21:06.196Z,97694.48
2022-09-01T21:23:34.899Z,97696.58
2022-09-01T21:26:03.512Z,97696.22
2022-09-01T21:28:33.623Z,97698.27
2022-09-01T21:31:02.222Z,97698.41
2022-09-01T21:33:34.874Z,97700.61
2022-09-01T21:36:04.282Z,97700.14
2022-09-01T21:38:33.973Z,97702.73
2022-09-01T21:41:08.578Z,97699.22
2022-09-01T21:43:43.680Z,97698.60
2022-09-01T21:46:14.818Z,97699.00
2022-09-01T21:48:43.207Z,97696.45
2022-09-01T21:51:11.352Z,97696.01
2022-09-01T21:53:39.426Z,97697.15
2022-09-01T21:56:07.648Z,97698.23
2022-09-01T21:58:40.429Z,97692.94
2022-09-01T22:01:10.672Z,97692.74
2022-09-01T22:03:44.070Z,97693.20
2022-09-01T22:06:13.371Z,97693.30
2022-09-01T22:08:42.070Z,97695.00
2022-09-01T22:11:10.727Z,97692.52
2022-09-01T22:13:39.006Z,97691.73
2022-09-01T22:16:07.687Z,97691.02
2022-09-01T22:18:35.822Z,97686.49
2022-09-01T22:21:09.370Z,97684.56
2022-09-01T22:23:38.730Z,97682.27
2022-09-01T22:26:10.412Z,97680.29
2022-09-01T22:28:40.901Z,97675.66
2022-09-01T22:31:14.463Z,97672.84
2022-09-01T22:33:43.563Z,97667.67
2022-09-01T22:36:11.752Z,97668.00
2022-09-01T22:38:40.112Z,97671.67
2022-09-01T22:41:08.466Z,97673.39
2022-09-01T22:43:36.488Z,97680.80
2022-09-01T22:46:06.379Z,97682.12
2022-09-01T22:48:34.686Z,97678.59
2022-09-01T22:51:08.502Z,97673.11
2022-09-01T22:53:38.451Z,97674.25
2022-09-01T22:56:26.251Z,97676.62
2022-09-01T22:58:56.580Z,97679.09
2022-09-01T23:01:30.192Z,97680.20
2022-09-01T23:04:00.198Z,97681.38
2022-09-01T23:06:29.899Z,97680.75
2022-09-01T23:09:00.382Z,97675.99
2022-09-01T23:11:29.129Z,97673.39
2022-09-01T23:13:57.162Z,97667.44
2022-09-01T23:16:26.859Z,97665.07
2022-09-01T23:18:55.399Z,97665.65
2022-09-01T23:21:27.430Z,97666.50
2022-09-01T23:23:58.415Z,97667.92
2022-09-01T23:26:29.175Z,97664.72
2022-09-01T23:28:58.778Z,97660.73
2022-09-01T23:31:30.019Z,97661.75
2022-09-01T23:33:58.689Z,97660.11
2022-09-01T23:36:28.819Z,97660.79
2022-09-01T23:38:57.410Z,97656.97
2022-09-01T23:41:31.078Z,97657.55
2022-09-01T23:44:03.001Z,97657.73
2022-09-01T23:46:34.318Z,97661.61
2022-09-01T23:49:03.830Z,97655.69
2022-09-01T23:51:32.142Z,97655.90
2022-09-01T23:54:00.599Z,97655.18
2022-09-01T23:56:30.261Z,97654.91
2022-09-01T23:59:01.013Z,97653.11
